sensor_id;sensor_type;location;lat;lon;timestamp;P1;durP1;ratioP1;P2;durP2;ratioP2
74926;SDS011;63488;48.092;-1.640;2022-09-13T00:01:40;2.03;;;0.60;;
74926;SDS011;63488;48.092;-1.640;2022-09-13T00:04:05;3.58;;;0.73;;
74926;SDS011;63488;48.092;-1.640;2022-09-13T00:06:30;4.13;;;0.60;;
74926;SDS011;63488;48.092;-1.640;2022-09-13T00:08:56;2.58;;;0.50;;
74926;SDS011;63488;48.092;-1.640;2022-09-13T00:11:25;2.50;;;0.75;;
74926;SDS011;63488;48.092;-1.640;2022-09-13T00:13:52;5.63;;;1.60;;
74926;SDS011;63488;48.092;-1.640;2022-09-13T00:16:18;2.28;;;0.60;;
74926;SDS011;63488;48.092;-1.640;2022-09-13T00:18:43;2.65;;;0.50;;
74926;SDS011;63488;48.092;-1.640;2022-09-13T00:21:10;1.77;;;0.60;;
74926;SDS011;63488;48.092;-1.640;2022-09-13T00:23:36;3.45;;;0.95;;
74926;SDS011;63488;48.092;-1.640;2022-09-13T00:26:09;1.95;;;0.63;;
74926;SDS011;63488;48.092;-1.640;2022-09-13T00:28:35;1.42;;;0.60;;
74926;SDS011;63488;48.092;-1.640;2022-09-13T00:31:01;3.45;;;0.95;;
74926;SDS011;63488;48.092;-1.640;2022-09-13T00:33:27;1.98;;;0.52;;
74926;SDS011;63488;48.092;-1.640;2022-09-13T00:35:53;2.78;;;0.50;;
74926;SDS011;63488;48.092;-1.640;2022-09-13T00:38:18;2.92;;;0.60;;
74926;SDS011;63488;48.092;-1.640;2022-09-13T00:40:43;1.95;;;0.77;;
74926;SDS011;63488;48.092;-1.640;2022-09-13T00:43:11;1.60;;;0.80;;
74926;SDS011;63488;48.092;-1.640;2022-09-13T00:45:40;1.75;;;0.60;;
74926;SDS011;63488;48.092;-1.640;2022-09-13T00:48:05;3.22;;;0.63;;
74926;SDS011;63488;48.092;-1.640;2022-09-13T00:50:39;2.63;;;0.82;;
74926;SDS011;63488;48.092;-1.640;2022-09-13T00:53:10;1.67;;;0.47;;
74926;SDS011;63488;48.092;-1.640;2022-09-13T00:58:06;2.42;;;0.60;;
74926;SDS011;63488;48.092;-1.640;2022-09-13T01:00:33;1.23;;;0.50;;
74926;SDS011;63488;48.092;-1.640;2022-09-13T01:03:00;1.55;;;0.68;;
74926;SDS011;63488;48.092;-1.640;2022-09-13T01:05:29;5.68;;;0.63;;
74926;SDS011;63488;48.092;-1.640;2022-09-13T01:07:56;1.77;;;0.82;;
74926;SDS011;63488;48.092;-1.640;2022-09-13T01:10:23;1.90;;;0.80;;
74926;SDS011;63488;48.092;-1.640;2022-09-13T01:12:56;2.55;;;1.10;;
74926;SDS011;63488;48.092;-1.640;2022-09-13T01:15:23;0.90;;;0.63;;
74926;SDS011;63488;48.092;-1.640;2022-09-13T01:17:49;3.97;;;0.70;;
74926;SDS011;63488;48.092;-1.640;2022-09-13T01:20:16;2.28;;;0.70;;
74926;SDS011;63488;48.092;-1.640;2022-09-13T01:25:16;1.00;;;0.70;;
74926;SDS011;63488;48.092;-1.640;2022-09-13T01:30:21;1.48;;;0.80;;
74926;SDS011;63488;48.092;-1.640;2022-09-13T01:37:53;1.52;;;0.90;;
74926;SDS011;63488;48.092;-1.640;2022-09-13T01:40:27;1.92;;;0.60;;
74926;SDS011;63488;48.092;-1.640;2022-09-13T01:45:45;1.38;;;0.90;;
74926;SDS011;63488;48.092;-1.640;2022-09-13T01:51:19;3.88;;;0.95;;
74926;SDS011;63488;48.092;-1.640;2022-09-13T01:53:48;4.18;;;1.20;;
74926;SDS011;63488;48.092;-1.640;2022-09-13T01:56:37;2.13;;;0.70;;
74926;SDS011;63488;48.092;-1.640;2022-09-13T01:59:05;1.30;;;0.82;;
74926;SDS011;63488;48.092;-1.640;2022-09-13T02:04:21;2.70;;;1.00;;
74926;SDS011;63488;48.092;-1.640;2022-09-13T02:06:52;2.10;;;0.77;;
74926;SDS011;63488;48.092;-1.640;2022-09-13T02:09:21;2.28;;;0.70;;
74926;SDS011;63488;48.092;-1.640;2022-09-13T02:11:50;2.70;;;1.00;;
74926;SDS011;63488;48.092;-1.640;2022-09-13T02:14:24;3.22;;;0.85;;
74926;SDS011;63488;48.092;-1.640;2022-09-13T02:17:00;1.80;;;0.80;;
74926;SDS011;63488;48.092;-1.640;2022-09-13T02:19:30;2.75;;;0.70;;
74926;SDS011;63488;48.092;-1.640;2022-09-13T02:21:58;3.55;;;0.90;;
74926;SDS011;63488;48.092;-1.640;2022-09-13T02:24:32;1.55;;;0.85;;
74926;SDS011;63488;48.092;-1.640;2022-09-13T02:26:58;1.42;;;0.70;;
74926;SDS011;63488;48.092;-1.640;2022-09-13T02:29:27;2.90;;;0.82;;
74926;SDS011;63488;48.092;-1.640;2022-09-13T02:31:54;1.95;;;0.80;;
74926;SDS011;63488;48.092;-1.640;2022-09-13T02:34:31;1.67;;;0.82;;
74926;SDS011;63488;48.092;-1.640;2022-09-13T02:36:58;0.80;;;0.80;;
74926;SDS011;63488;48.092;-1.640;2022-09-13T02:39:25;3.17;;;0.70;;
74926;SDS011;63488;48.092;-1.640;2022-09-13T02:41:55;1.98;;;0.90;;
74926;SDS011;63488;48.092;-1.640;2022-09-13T02:44:32;2.05;;;0.82;;
74926;SDS011;63488;48.092;-1.640;2022-09-13T02:52:49;3.60;;;0.70;;
74926;SDS011;63488;48.092;-1.640;2022-09-13T02:55:10;3.38;;;0.80;;
74926;SDS011;63488;48.092;-1.640;2022-09-13T02:57:40;2.53;;;0.88;;
74926;SDS011;63488;48.092;-1.640;2022-09-13T03:00:06;2.65;;;0.90;;
74926;SDS011;63488;48.092;-1.640;2022-09-13T03:02:32;2.15;;;1.00;;
74926;SDS011;63488;48.092;-1.640;2022-09-13T03:04:59;3.55;;;1.20;;
74926;SDS011;63488;48.092;-1.640;2022-09-13T03:07:24;0.80;;;0.65;;
74926;SDS011;63488;48.092;-1.640;2022-09-13T03:09:53;3.95;;;1.08;;
74926;SDS011;63488;48.092;-1.640;2022-09-13T03:12:23;2.05;;;1.00;;
74926;SDS011;63488;48.092;-1.640;2022-09-13T03:22:35;2.55;;;0.90;;
74926;SDS011;63488;48.092;-1.640;2022-09-13T03:25:06;2.33;;;1.00;;
74926;SDS011;63488;48.092;-1.640;2022-09-13T03:30:08;3.97;;;1.23;;
74926;SDS011;63488;48.092;-1.640;2022-09-13T03:32:40;2.67;;;1.25;;
74926;SDS011;63488;48.092;-1.640;2022-09-13T03:41:05;2.92;;;1.52;;
74926;SDS011;63488;48.092;-1.640;2022-09-13T03:43:12;1.63;;;0.90;;
74926;SDS011;63488;48.092;-1.640;2022-09-13T03:45:50;3.67;;;1.20;;
74926;SDS011;63488;48.092;-1.640;2022-09-13T03:48:17;3.63;;;1.33;;
74926;SDS011;63488;48.092;-1.640;2022-09-13T03:50:44;2.75;;;1.30;;
74926;SDS011;63488;48.092;-1.640;2022-09-13T03:53:10;4.10;;;1.17;;
74926;SDS011;63488;48.092;-1.640;2022-09-13T03:55:38;1.60;;;0.90;;
74926;SDS011;63488;48.092;-1.640;2022-09-13T03:58:05;3.78;;;1.27;;
74926;SDS011;63488;48.092;-1.640;2022-09-13T04:00:30;3.75;;;1.17;;
74926;SDS011;63488;48.092;-1.640;2022-09-13T04:02:56;2.33;;;0.95;;
74926;SDS011;63488;48.092;-1.640;2022-09-13T04:05:21;2.35;;;1.05;;
74926;SDS011;63488;48.092;-1.640;2022-09-13T04:07:46;1.98;;;1.20;;
74926;SDS011;63488;48.092;-1.640;2022-09-13T04:10:12;3.10;;;1.00;;
74926;SDS011;63488;48.092;-1.640;2022-09-13T04:12:38;3.30;;;1.05;;
74926;SDS011;63488;48.092;-1.640;2022-09-13T04:15:05;2.33;;;1.20;;
74926;SDS011;63488;48.092;-1.640;2022-09-13T04:17:31;3.95;;;1.30;;
74926;SDS011;63488;48.092;-1.640;2022-09-13T04:19:56;3.22;;;1.10;;
74926;SDS011;63488;48.092;-1.640;2022-09-13T04:22:21;2.72;;;1.30;;
74926;SDS011;63488;48.092;-1.640;2022-09-13T04:24:47;3.42;;;1.10;;
74926;SDS011;63488;48.092;-1.640;2022-09-13T04:27:12;2.53;;;1.10;;
74926;SDS011;63488;48.092;-1.640;2022-09-13T04:29:37;3.63;;;1.17;;
74926;SDS011;63488;48.092;-1.640;2022-09-13T04:32:03;2.83;;;1.23;;
74926;SDS011;63488;48.092;-1.640;2022-09-13T04:34:28;4.47;;;1.33;;
74926;SDS011;63488;48.092;-1.640;2022-09-13T04:36:54;2.67;;;1.42;;
74926;SDS011;63488;48.092;-1.640;2022-09-13T04:39:20;3.72;;;1.60;;
74926;SDS011;63488;48.092;-1.640;2022-09-13T04:41:46;3.35;;;1.40;;
74926;SDS011;63488;48.092;-1.640;2022-09-13T04:44:12;1.83;;;1.20;;
74926;SDS011;63488;48.092;-1.640;2022-09-13T04:46:37;4.88;;;1.50;;
74926;SDS011;63488;48.092;-1.640;2022-09-13T04:49:02;2.05;;;1.33;;
74926;SDS011;63488;48.092;-1.640;2022-09-13T04:51:28;3.67;;;1.40;;
74926;SDS011;63488;48.092;-1.640;2022-09-13T04:53:54;3.40;;;1.38;;
74926;SDS011;63488;48.092;-1.640;2022-09-13T04:56:20;4.05;;;1.70;;
74926;SDS011;63488;48.092;-1.640;2022-09-13T04:58:45;5.50;;;1.58;;
74926;SDS011;63488;48.092;-1.640;2022-09-13T05:01:11;4.47;;;1.45;;
74926;SDS011;63488;48.092;-1.640;2022-09-13T05:03:36;2.42;;;1.50;;
74926;SDS011;63488;48.092;-1.640;2022-09-13T05:08:27;5.63;;;1.50;;
74926;SDS011;63488;48.092;-1.640;2022-09-13T05:10:53;5.15;;;1.80;;
74926;SDS011;63488;48.092;-1.640;2022-09-13T05:13:18;5.45;;;1.67;;
74926;SDS011;63488;48.092;-1.640;2022-09-13T05:15:43;4.47;;;1.60;;
74926;SDS011;63488;48.092;-1.640;2022-09-13T05:18:09;3.25;;;1.50;;
74926;SDS011;63488;48.092;-1.640;2022-09-13T05:20:34;4.20;;;1.40;;
74926;SDS011;63488;48.092;-1.640;2022-09-13T05:22:59;5.10;;;1.50;;
74926;SDS011;63488;48.092;-1.640;2022-09-13T05:25:25;3.13;;;1.40;;
74926;SDS011;63488;48.092;-1.640;2022-09-13T05:27:50;4.95;;;1.70;;
74926;SDS011;63488;48.092;-1.640;2022-09-13T05:30:15;2.92;;;1.83;;
74926;SDS011;63488;48.092;-1.640;2022-09-13T05:32:41;4.75;;;1.90;;
74926;SDS011;63488;48.092;-1.640;2022-09-13T05:35:06;3.95;;;1.42;;
74926;SDS011;63488;48.092;-1.640;2022-09-13T05:37:32;4.72;;;1.50;;
74926;SDS011;63488;48.092;-1.640;2022-09-13T05:39:57;4.93;;;1.50;;
74926;SDS011;63488;48.092;-1.640;2022-09-13T05:42:23;4.72;;;1.52;;
74926;SDS011;63488;48.092;-1.640;2022-09-13T05:44:48;3.30;;;1.60;;
74926;SDS011;63488;48.092;-1.640;2022-09-13T05:47:13;4.05;;;1.52;;
74926;SDS011;63488;48.092;-1.640;2022-09-13T05:49:39;5.97;;;1.55;;
74926;SDS011;63488;48.092;-1.640;2022-09-13T05:52:04;3.40;;;1.40;;
74926;SDS011;63488;48.092;-1.640;2022-09-13T05:54:30;6.63;;;1.80;;
74926;SDS011;63488;48.092;-1.640;2022-09-13T05:56:55;2.03;;;1.48;;
74926;SDS011;63488;48.092;-1.640;2022-09-13T05:59:21;1.75;;;1.50;;
74926;SDS011;63488;48.092;-1.640;2022-09-13T06:01:47;3.38;;;1.50;;
74926;SDS011;63488;48.092;-1.640;2022-09-13T06:04:12;4.55;;;1.60;;
74926;SDS011;63488;48.092;-1.640;2022-09-13T06:06:38;3.20;;;1.60;;
74926;SDS011;63488;48.092;-1.640;2022-09-13T06:09:04;3.55;;;1.70;;
74926;SDS011;63488;48.092;-1.640;2022-09-13T06:11:31;7.18;;;1.70;;
74926;SDS011;63488;48.092;-1.640;2022-09-13T06:13:56;3.05;;;1.40;;
74926;SDS011;63488;48.092;-1.640;2022-09-13T06:16:21;4.60;;;1.75;;
74926;SDS011;63488;48.092;-1.640;2022-09-13T06:18:47;3.42;;;1.60;;
74926;SDS011;63488;48.092;-1.640;2022-09-13T06:21:20;4.45;;;1.58;;
74926;SDS011;63488;48.092;-1.640;2022-09-13T06:23:46;3.00;;;1.60;;
74926;SDS011;63488;48.092;-1.640;2022-09-13T06:26:13;4.15;;;1.50;;
74926;SDS011;63488;48.092;-1.640;2022-09-13T06:28:38;2.72;;;1.48;;
74926;SDS011;63488;48.092;-1.640;2022-09-13T06:31:11;6.78;;;2.08;;
74926;SDS011;63488;48.092;-1.640;2022-09-13T06:33:37;3.42;;;1.63;;
74926;SDS011;63488;48.092;-1.640;2022-09-13T06:36:04;3.05;;;1.70;;
74926;SDS011;63488;48.092;-1.640;2022-09-13T06:38:30;3.90;;;1.70;;
74926;SDS011;63488;48.092;-1.640;2022-09-13T06:41:02;5.55;;;1.65;;
74926;SDS011;63488;48.092;-1.640;2022-09-13T06:43:28;4.68;;;1.40;;
74926;SDS011;63488;48.092;-1.640;2022-09-13T06:45:57;4.18;;;1.50;;
74926;SDS011;63488;48.092;-1.640;2022-09-13T06:48:23;6.47;;;1.20;;
74926;SDS011;63488;48.092;-1.640;2022-09-13T06:50:48;4.07;;;1.38;;
74926;SDS011;63488;48.092;-1.640;2022-09-13T06:53:14;4.00;;;1.67;;
74926;SDS011;63488;48.092;-1.640;2022-09-13T06:55:39;3.88;;;1.67;;
74926;SDS011;63488;48.092;-1.640;2022-09-13T06:58:04;5.05;;;1.67;;
74926;SDS011;63488;48.092;-1.640;2022-09-13T07:00:30;8.90;;;1.70;;
74926;SDS011;63488;48.092;-1.640;2022-09-13T07:02:55;4.63;;;1.70;;
74926;SDS011;63488;48.092;-1.640;2022-09-13T07:05:20;4.45;;;2.33;;
74926;SDS011;63488;48.092;-1.640;2022-09-13T07:07:46;4.80;;;1.80;;
74926;SDS011;63488;48.092;-1.640;2022-09-13T07:10:12;8.98;;;1.80;;
74926;SDS011;63488;48.092;-1.640;2022-09-13T07:12:39;6.03;;;1.75;;
74926;SDS011;63488;48.092;-1.640;2022-09-13T07:15:05;3.25;;;1.40;;
74926;SDS011;63488;48.092;-1.640;2022-09-13T07:17:30;6.35;;;1.90;;
74926;SDS011;63488;48.092;-1.640;2022-09-13T07:19:56;5.93;;;1.70;;
74926;SDS011;63488;48.092;-1.640;2022-09-13T07:22:21;6.57;;;1.80;;
74926;SDS011;63488;48.092;-1.640;2022-09-13T07:24:51;5.57;;;1.85;;
74926;SDS011;63488;48.092;-1.640;2022-09-13T07:27:16;4.25;;;1.67;;
74926;SDS011;63488;48.092;-1.640;2022-09-13T07:29:41;2.83;;;1.60;;
74926;SDS011;63488;48.092;-1.640;2022-09-13T07:32:07;4.45;;;1.50;;
74926;SDS011;63488;48.092;-1.640;2022-09-13T07:34:32;6.55;;;1.60;;
74926;SDS011;63488;48.092;-1.640;2022-09-13T07:36:58;4.90;;;2.35;;
74926;SDS011;63488;48.092;-1.640;2022-09-13T07:39:23;5.50;;;2.75;;
74926;SDS011;63488;48.092;-1.640;2022-09-13T07:41:49;7.22;;;3.92;;
74926;SDS011;63488;48.092;-1.640;2022-09-13T07:44:14;7.95;;;4.93;;
74926;SDS011;63488;48.092;-1.640;2022-09-13T07:46:40;12.05;;;5.47;;
74926;SDS011;63488;48.092;-1.640;2022-09-13T07:49:08;10.93;;;5.38;;
74926;SDS011;63488;48.092;-1.640;2022-09-13T07:51:35;11.57;;;6.00;;
74926;SDS011;63488;48.092;-1.640;2022-09-13T07:54:02;9.40;;;4.88;;
74926;SDS011;63488;48.092;-1.640;2022-09-13T07:56:28;12.95;;;5.50;;
74926;SDS011;63488;48.092;-1.640;2022-09-13T07:58:54;16.33;;;5.90;;
74926;SDS011;63488;48.092;-1.640;2022-09-13T08:01:24;12.75;;;5.82;;
74926;SDS011;63488;48.092;-1.640;2022-09-13T08:03:50;8.98;;;4.65;;
74926;SDS011;63488;48.092;-1.640;2022-09-13T08:06:16;5.90;;;3.92;;
74926;SDS011;63488;48.092;-1.640;2022-09-13T08:08:41;6.68;;;3.80;;
74926;SDS011;63488;48.092;-1.640;2022-09-13T08:11:07;10.13;;;3.92;;
74926;SDS011;63488;48.092;-1.640;2022-09-13T08:13:32;7.68;;;2.85;;
74926;SDS011;63488;48.092;-1.640;2022-09-13T08:16:04;8.13;;;2.70;;
74926;SDS011;63488;48.092;-1.640;2022-09-13T08:18:30;5.55;;;2.13;;
74926;SDS011;63488;48.092;-1.640;2022-09-13T08:20:56;7.07;;;2.22;;
74926;SDS011;63488;48.092;-1.640;2022-09-13T08:23:22;6.45;;;2.03;;
74926;SDS011;63488;48.092;-1.640;2022-09-13T08:25:48;3.45;;;1.90;;
74926;SDS011;63488;48.092;-1.640;2022-09-13T08:28:14;7.57;;;1.92;;
74926;SDS011;63488;48.092;-1.640;2022-09-13T08:30:40;4.22;;;1.80;;
74926;SDS011;63488;48.092;-1.640;2022-09-13T08:33:07;5.53;;;1.60;;
74926;SDS011;63488;48.092;-1.640;2022-09-13T08:35:33;6.68;;;2.17;;
74926;SDS011;63488;48.092;-1.640;2022-09-13T08:37:59;6.93;;;2.67;;
74926;SDS011;63488;48.092;-1.640;2022-09-13T08:40:26;3.35;;;1.58;;
74926;SDS011;63488;48.092;-1.640;2022-09-13T08:45:26;3.42;;;1.58;;
74926;SDS011;63488;48.092;-1.640;2022-09-13T08:48:00;8.30;;;1.98;;
74926;SDS011;63488;48.092;-1.640;2022-09-13T08:50:30;5.00;;;1.70;;
74926;SDS011;63488;48.092;-1.640;2022-09-13T08:58:12;11.18;;;2.17;;
74926;SDS011;63488;48.092;-1.640;2022-09-13T09:00:45;6.95;;;1.70;;
74926;SDS011;63488;48.092;-1.640;2022-09-13T09:05:44;9.18;;;2.30;;
74926;SDS011;63488;48.092;-1.640;2022-09-13T09:10:53;5.18;;;1.83;;
74926;SDS011;63488;48.092;-1.640;2022-09-13T09:16:16;9.80;;;2.13;;
74926;SDS011;63488;48.092;-1.640;2022-09-13T09:18:39;8.15;;;2.40;;
74926;SDS011;63488;48.092;-1.640;2022-09-13T09:21:09;6.80;;;2.40;;
74926;SDS011;63488;48.092;-1.640;2022-09-13T09:26:18;7.10;;;2.45;;
74926;SDS011;63488;48.092;-1.640;2022-09-13T09:28:46;7.20;;;2.13;;
74926;SDS011;63488;48.092;-1.640;2022-09-13T09:31:13;8.63;;;2.28;;
74926;SDS011;63488;48.092;-1.640;2022-09-13T09:38:38;9.05;;;2.08;;
74926;SDS011;63488;48.092;-1.640;2022-09-13T09:41:17;6.05;;;2.53;;
74926;SDS011;63488;48.092;-1.640;2022-09-13T09:46:12;7.10;;;2.45;;
74926;SDS011;63488;48.092;-1.640;2022-09-13T09:48:49;7.57;;;2.60;;
74926;SDS011;63488;48.092;-1.640;2022-09-13T09:51:17;4.93;;;2.50;;
74926;SDS011;63488;48.092;-1.640;2022-09-13T09:53:44;4.45;;;1.90;;
74926;SDS011;63488;48.092;-1.640;2022-09-13T09:58:44;4.65;;;2.13;;
74926;SDS011;63488;48.092;-1.640;2022-09-13T10:01:13;6.80;;;2.80;;
74926;SDS011;63488;48.092;-1.640;2022-09-13T10:03:40;9.20;;;2.97;;
74926;SDS011;63488;48.092;-1.640;2022-09-13T10:06:10;9.90;;;2.50;;
74926;SDS011;63488;48.092;-1.640;2022-09-13T10:08:37;10.52;;;2.50;;
74926;SDS011;63488;48.092;-1.640;2022-09-13T10:11:03;7.65;;;2.70;;
74926;SDS011;63488;48.092;-1.640;2022-09-13T10:13:30;10.50;;;2.78;;
74926;SDS011;63488;48.092;-1.640;2022-09-13T10:16:03;8.25;;;2.88;;
74926;SDS011;63488;48.092;-1.640;2022-09-13T10:18:30;6.38;;;2.33;;
74926;SDS011;63488;48.092;-1.640;2022-09-13T10:21:06;7.55;;;2.95;;
74926;SDS011;63488;48.092;-1.640;2022-09-13T10:23:35;6.50;;;2.42;;
74926;SDS011;63488;48.092;-1.640;2022-09-13T10:26:11;7.50;;;2.30;;
74926;SDS011;63488;48.092;-1.640;2022-09-13T10:31:13;8.13;;;2.15;;
74926;SDS011;63488;48.092;-1.640;2022-09-13T10:33:42;5.18;;;2.00;;
74926;SDS011;63488;48.092;-1.640;2022-09-13T10:36:18;5.57;;;2.58;;
74926;SDS011;63488;48.092;-1.640;2022-09-13T10:39:02;11.77;;;2.10;;
74926;SDS011;63488;48.092;-1.640;2022-09-13T10:41:29;7.18;;;2.70;;
74926;SDS011;63488;48.092;-1.640;2022-09-13T10:43:59;13.23;;;2.83;;
74926;SDS011;63488;48.092;-1.640;2022-09-13T10:46:25;8.55;;;2.42;;
74926;SDS011;63488;48.092;-1.640;2022-09-13T10:48:52;7.68;;;2.40;;
74926;SDS011;63488;48.092;-1.640;2022-09-13T10:51:27;10.43;;;2.47;;
74926;SDS011;63488;48.092;-1.640;2022-09-13T10:56:39;8.30;;;2.67;;
74926;SDS011;63488;48.092;-1.640;2022-09-13T10:59:24;6.68;;;2.45;;
74926;SDS011;63488;48.092;-1.640;2022-09-13T11:04:55;8.50;;;2.33;;
74926;SDS011;63488;48.092;-1.640;2022-09-13T11:12:23;12.60;;;3.30;;
74926;SDS011;63488;48.092;-1.640;2022-09-13T11:15:39;9.13;;;2.78;;
74926;SDS011;63488;48.092;-1.640;2022-09-13T11:23:20;7.97;;;2.33;;
74926;SDS011;63488;48.092;-1.640;2022-09-13T11:28:28;6.63;;;2.38;;
74926;SDS011;63488;48.092;-1.640;2022-09-13T11:30:59;8.70;;;2.30;;
74926;SDS011;63488;48.092;-1.640;2022-09-13T11:43:49;11.95;;;2.95;;
74926;SDS011;63488;48.092;-1.640;2022-09-13T11:46:25;9.88;;;2.88;;
74926;SDS011;63488;48.092;-1.640;2022-09-13T11:51:36;11.35;;;2.75;;
74926;SDS011;63488;48.092;-1.640;2022-09-13T11:54:26;8.25;;;2.78;;
74926;SDS011;63488;48.092;-1.640;2022-09-13T11:56:54;8.13;;;2.90;;
74926;SDS011;63488;48.092;-1.640;2022-09-13T12:04:54;7.00;;;3.05;;
74926;SDS011;63488;48.092;-1.640;2022-09-13T12:07:35;10.75;;;3.88;;
74926;SDS011;63488;48.092;-1.640;2022-09-13T12:10:04;11.90;;;3.35;;
74926;SDS011;63488;48.092;-1.640;2022-09-13T12:14:59;7.63;;;3.07;;
74926;SDS011;63488;48.092;-1.640;2022-09-13T12:17:28;8.57;;;3.28;;
74926;SDS011;63488;48.092;-1.640;2022-09-13T12:19:56;6.80;;;2.92;;
74926;SDS011;63488;48.092;-1.640;2022-09-13T12:22:23;8.00;;;3.60;;
74926;SDS011;63488;48.092;-1.640;2022-09-13T12:24:54;9.30;;;3.20;;
74926;SDS011;63488;48.092;-1.640;2022-09-13T12:32:13;11.02;;;3.22;;
74926;SDS011;63488;48.092;-1.640;2022-09-13T12:34:47;6.82;;;3.00;;
74926;SDS011;63488;48.092;-1.640;2022-09-13T12:50:24;8.57;;;3.13;;
74926;SDS011;63488;48.092;-1.640;2022-09-13T12:58:22;12.07;;;3.63;;
74926;SDS011;63488;48.092;-1.640;2022-09-13T13:01:04;17.13;;;3.78;;
74926;SDS011;63488;48.092;-1.640;2022-09-13T13:03:34;10.07;;;2.97;;
74926;SDS011;63488;48.092;-1.640;2022-09-13T13:06:12;6.43;;;3.28;;
74926;SDS011;63488;48.092;-1.640;2022-09-13T13:08:39;10.80;;;3.45;;
74926;SDS011;63488;48.092;-1.640;2022-09-13T13:11:12;9.35;;;3.85;;
74926;SDS011;63488;48.092;-1.640;2022-09-13T13:13:39;11.43;;;3.60;;
74926;SDS011;63488;48.092;-1.640;2022-09-13T13:16:19;11.23;;;4.13;;
74926;SDS011;63488;48.092;-1.640;2022-09-13T13:18:46;10.73;;;3.80;;
74926;SDS011;63488;48.092;-1.640;2022-09-13T13:21:46;13.90;;;4.13;;
74926;SDS011;63488;48.092;-1.640;2022-09-13T13:26:52;9.60;;;3.60;;
74926;SDS011;63488;48.092;-1.640;2022-09-13T13:36:47;9.82;;;3.78;;
74926;SDS011;63488;48.092;-1.640;2022-09-13T13:41:51;7.78;;;4.18;;
74926;SDS011;63488;48.092;-1.640;2022-09-13T13:46:44;11.25;;;4.25;;
74926;SDS011;63488;48.092;-1.640;2022-09-13T13:59:51;8.05;;;4.65;;
74926;SDS011;63488;48.092;-1.640;2022-09-13T14:02:19;13.07;;;4.32;;
74926;SDS011;63488;48.092;-1.640;2022-09-13T14:05:06;12.07;;;5.07;;
74926;SDS011;63488;48.092;-1.640;2022-09-13T14:15:48;9.40;;;4.78;;
74926;SDS011;63488;48.092;-1.640;2022-09-13T14:18:33;12.48;;;5.07;;
74926;SDS011;63488;48.092;-1.640;2022-09-13T14:21:03;11.73;;;5.28;;
74926;SDS011;63488;48.092;-1.640;2022-09-13T14:23:29;8.95;;;4.97;;
74926;SDS011;63488;48.092;-1.640;2022-09-13T14:25:56;12.00;;;4.90;;
74926;SDS011;63488;48.092;-1.640;2022-09-13T14:28:22;13.88;;;5.00;;
74926;SDS011;63488;48.092;-1.640;2022-09-13T14:30:48;9.68;;;5.00;;
74926;SDS011;63488;48.092;-1.640;2022-09-13T14:33:37;16.58;;;4.97;;
74926;SDS011;63488;48.092;-1.640;2022-09-13T14:36:03;11.65;;;4.97;;
74926;SDS011;63488;48.092;-1.640;2022-09-13T14:38:30;10.13;;;4.97;;
74926;SDS011;63488;48.092;-1.640;2022-09-13T14:41:01;10.18;;;4.95;;
74926;SDS011;63488;48.092;-1.640;2022-09-13T14:43:27;11.73;;;5.85;;
74926;SDS011;63488;48.092;-1.640;2022-09-13T14:46:07;10.57;;;5.53;;
74926;SDS011;63488;48.092;-1.640;2022-09-13T14:51:00;10.10;;;5.03;;
74926;SDS011;63488;48.092;-1.640;2022-09-13T14:53:28;16.02;;;5.82;;
74926;SDS011;63488;48.092;-1.640;2022-09-13T14:55:55;13.07;;;5.55;;
74926;SDS011;63488;48.092;-1.640;2022-09-13T14:58:34;16.80;;;5.57;;
74926;SDS011;63488;48.092;-1.640;2022-09-13T15:01:04;12.67;;;5.43;;
74926;SDS011;63488;48.092;-1.640;2022-09-13T15:03:30;11.13;;;5.20;;
74926;SDS011;63488;48.092;-1.640;2022-09-13T15:05:57;15.10;;;5.75;;
74926;SDS011;63488;48.092;-1.640;2022-09-13T15:08:27;13.88;;;5.57;;
74926;SDS011;63488;48.092;-1.640;2022-09-13T15:11:06;11.95;;;5.53;;
74926;SDS011;63488;48.092;-1.640;2022-09-13T15:13:32;9.27;;;5.30;;
74926;SDS011;63488;48.092;-1.640;2022-09-13T15:15:57;11.75;;;5.50;;
74926;SDS011;63488;48.092;-1.640;2022-09-13T15:18:24;14.50;;;5.82;;
74926;SDS011;63488;48.092;-1.640;2022-09-13T15:20:57;14.95;;;6.25;;
74926;SDS011;63488;48.092;-1.640;2022-09-13T15:26:40;10.07;;;5.30;;
74926;SDS011;63488;48.092;-1.640;2022-09-13T15:31:09;11.77;;;6.25;;
74926;SDS011;63488;48.092;-1.640;2022-09-13T15:33:36;10.35;;;5.25;;
74926;SDS011;63488;48.092;-1.640;2022-09-13T15:38:57;12.50;;;4.97;;
74926;SDS011;63488;48.092;-1.640;2022-09-13T15:41:26;8.85;;;4.60;;
74926;SDS011;63488;48.092;-1.640;2022-09-13T15:43:52;9.80;;;4.95;;
74926;SDS011;63488;48.092;-1.640;2022-09-13T15:46:17;10.20;;;5.15;;
74926;SDS011;63488;48.092;-1.640;2022-09-13T15:48:44;12.32;;;5.18;;
74926;SDS011;63488;48.092;-1.640;2022-09-13T15:51:14;11.15;;;5.00;;
74926;SDS011;63488;48.092;-1.640;2022-09-13T15:53:41;12.70;;;7.00;;
74926;SDS011;63488;48.092;-1.640;2022-09-13T15:56:07;15.80;;;6.45;;
74926;SDS011;63488;48.092;-1.640;2022-09-13T15:58:33;11.00;;;5.10;;
74926;SDS011;63488;48.092;-1.640;2022-09-13T16:00:59;11.05;;;5.80;;
74926;SDS011;63488;48.092;-1.640;2022-09-13T16:03:24;8.23;;;4.75;;
74926;SDS011;63488;48.092;-1.640;2022-09-13T16:05:50;11.15;;;5.43;;
74926;SDS011;63488;48.092;-1.640;2022-09-13T16:08:15;13.18;;;5.65;;
74926;SDS011;63488;48.092;-1.640;2022-09-13T16:10:40;10.07;;;5.30;;
74926;SDS011;63488;48.092;-1.640;2022-09-13T16:13:06;8.40;;;4.85;;
74926;SDS011;63488;48.092;-1.640;2022-09-13T16:15:31;14.88;;;5.55;;
74926;SDS011;63488;48.092;-1.640;2022-09-13T16:17:57;15.50;;;5.57;;
74926;SDS011;63488;48.092;-1.640;2022-09-13T16:20:22;13.90;;;5.63;;
74926;SDS011;63488;48.092;-1.640;2022-09-13T16:22:47;12.27;;;6.07;;
74926;SDS011;63488;48.092;-1.640;2022-09-13T16:25:13;12.15;;;5.50;;
74926;SDS011;63488;48.092;-1.640;2022-09-13T16:27:39;14.35;;;5.72;;
74926;SDS011;63488;48.092;-1.640;2022-09-13T16:30:05;8.68;;;5.55;;
74926;SDS011;63488;48.092;-1.640;2022-09-13T16:32:31;12.68;;;5.47;;
74926;SDS011;63488;48.092;-1.640;2022-09-13T16:34:56;13.25;;;5.88;;
74926;SDS011;63488;48.092;-1.640;2022-09-13T16:37:22;14.60;;;6.28;;
74926;SDS011;63488;48.092;-1.640;2022-09-13T16:39:48;13.45;;;7.28;;
74926;SDS011;63488;48.092;-1.640;2022-09-13T16:42:13;17.48;;;8.73;;
74926;SDS011;63488;48.092;-1.640;2022-09-13T16:44:40;13.38;;;7.32;;
74926;SDS011;63488;48.092;-1.640;2022-09-13T16:47:05;16.98;;;7.65;;
74926;SDS011;63488;48.092;-1.640;2022-09-13T16:49:30;13.07;;;6.90;;
74926;SDS011;63488;48.092;-1.640;2022-09-13T16:51:56;12.07;;;6.80;;
74926;SDS011;63488;48.092;-1.640;2022-09-13T16:54:28;17.27;;;7.72;;
74926;SDS011;63488;48.092;-1.640;2022-09-13T16:56:59;15.98;;;7.28;;
74926;SDS011;63488;48.092;-1.640;2022-09-13T16:59:24;11.73;;;6.65;;
74926;SDS011;63488;48.092;-1.640;2022-09-13T17:01:50;14.85;;;6.90;;
74926;SDS011;63488;48.092;-1.640;2022-09-13T17:04:16;13.38;;;7.03;;
74926;SDS011;63488;48.092;-1.640;2022-09-13T17:06:42;19.50;;;7.20;;
74926;SDS011;63488;48.092;-1.640;2022-09-13T17:09:07;13.63;;;6.95;;
74926;SDS011;63488;48.092;-1.640;2022-09-13T17:11:34;17.45;;;7.65;;
74926;SDS011;63488;48.092;-1.640;2022-09-13T17:14:00;13.82;;;8.07;;
74926;SDS011;63488;48.092;-1.640;2022-09-13T17:18:58;16.23;;;7.82;;
74926;SDS011;63488;48.092;-1.640;2022-09-13T17:23:49;14.20;;;7.50;;
74926;SDS011;63488;48.092;-1.640;2022-09-13T17:26:15;16.75;;;7.90;;
74926;SDS011;63488;48.092;-1.640;2022-09-13T17:28:40;14.88;;;7.55;;
74926;SDS011;63488;48.092;-1.640;2022-09-13T17:31:06;15.23;;;7.25;;
74926;SDS011;63488;48.092;-1.640;2022-09-13T17:33:32;13.68;;;7.25;;
74926;SDS011;63488;48.092;-1.640;2022-09-13T17:36:07;15.07;;;7.15;;
74926;SDS011;63488;48.092;-1.640;2022-09-13T17:38:33;14.77;;;7.70;;
74926;SDS011;63488;48.092;-1.640;2022-09-13T17:40:59;15.40;;;6.30;;
74926;SDS011;63488;48.092;-1.640;2022-09-13T17:43:24;13.63;;;6.13;;
74926;SDS011;63488;48.092;-1.640;2022-09-13T17:45:50;13.10;;;6.80;;